Helas — C4AZ2 — position and weather

sailwx.info

Track history (hours):
 
Tides and Currents Weather Stations Pressure Air Temp Water Temp Dewpoint Dewpoint Depression Visibility Wind Speed Wind Dir Waves Ship Positions

Helas

Last reported at 2016-May-29 00:23 UTC. Time now 2016-May-30 04:58 UTC.
Position N 48°58' W 005°31'.

Length 89 m; draft 5.8 m.

Type: Cargo ship. MMSI: 210031000.

Date/timePositionNaut miles runAvg speedWind from/ knotsBaromVisibWave heightAir tempDewpointWater temp
2016-May-29 00:23N 48°58' W 005°31'10 9.7
2016-May-28 23:23N 49°03' W 005°18'9 9.1
2016-May-28 22:21N 49°07' W 005°06'7 8.7
2016-May-28 21:32N 49°11' W 004°57'8 8.6
2016-May-28 20:33N 49°15' W 004°46'9 8.6
2016-May-28 19:33N 49°19' W 004°34'12 9.2
2016-May-28 18:15N 49°25' W 004°18'3010.0
2016-May-28 15:15N 49°41' W 003°38'10 9.9
2016-May-28 14:14N 49°46' W 003°25'6 9.4
2016-May-28 13:34N 49°49' W 003°16'9 8.9
2016-May-28 12:33N 49°53' W 003°04'8 8.4
2016-May-28 11:33N 49°58' W 002°53'8 8.2
2016-May-28 10:33N 50°01' W 002°41'8510.7
2016-May-28 02:33N 50°32' W 000°37'9 8.8
2016-May-28 01:33N 50°35' W 000°24'8 8.2
2016-May-28 00:32N 50°39' W 000°12'8 7.9
2016-May-27 23:33N 50°46' W 000°14'1 0.8
2016-May-27 22:33N 50°46' W 000°13'6 5.8
2016-May-27 21:33N 50°41' W 000°07'6 6.4
2016-May-27 20:33N 50°46' W 000°13'1 1.0
2016-May-27 19:33N 50°47' W 000°15'0 0.0
2016-May-27 18:30N 50°47' W 000°15'0 0.0
2016-May-27 17:27N 50°47' W 000°15'0 0.0
2016-May-27 16:33N 50°47' W 000°15'0 0.0
2016-May-27 15:33N 50°47' W 000°15'0 0.0
2016-May-27 14:33N 50°47' W 000°15'0 0.0
2016-May-27 13:30N 50°47' W 000°15'0 0.1
2016-May-27 12:30N 50°47' W 000°15'0 0.0
2016-May-27 11:30N 50°47' W 000°15'0 0.0
2016-May-27 10:33N 50°47' W 000°15'0 0.1
2016-May-27 09:33N 50°47' W 000°15'0 0.1
2016-May-27 08:33N 50°47' W 000°15'0 0.0
2016-May-27 07:33N 50°47' W 000°15'0 0.0
2016-May-27 06:33N 50°47' W 000°15'0 0.0
2016-May-27 05:33N 50°47' W 000°15'0 0.0
2016-May-27 04:30N 50°47' W 000°15'0 0.0
2016-May-27 03:33N 50°47' W 000°15'0 0.0
2016-May-27 02:33N 50°47' W 000°15'0 0.0
2016-May-27 01:33N 50°47' W 000°15'0 0.1
2016-May-27 00:27N 50°47' W 000°15'0 0.0
2016-May-26 23:33N 50°47' W 000°15'0 0.0
2016-May-26 22:30N 50°47' W 000°15'0 0.0
2016-May-26 21:33N 50°47' W 000°15'0 0.1
2016-May-26 20:30N 50°47' W 000°15'0 0.0
2016-May-26 19:30N 50°47' W 000°15'0 0.0
2016-May-26 18:33N 50°47' W 000°15'0 0.0
2016-May-26 17:33N 50°47' W 000°15'0 0.0
2016-May-26 16:33N 50°47' W 000°15'0 0.0
2016-May-26 15:32N 50°47' W 000°15'0 0.0
2016-May-26 14:30N 50°47' W 000°15'0 0.0
2016-May-26 13:32N 50°47' W 000°15'0 0.0
2016-May-26 12:32N 50°47' W 000°15'0 0.1
2016-May-26 11:32N 50°47' W 000°15'1 1.3
2016-May-26 10:33N 50°46' W 000°13'1 1.0
2016-May-26 09:33N 50°46' W 000°14'1 0.5
2016-May-26 08:33N 50°47' W 000°15'0 0.1
2016-May-26 07:33N 50°47' W 000°15'0 0.0
2016-May-26 06:30N 50°47' W 000°15'0 0.0
2016-May-26 05:33N 50°47' W 000°15'0 0.0
2016-May-26 04:33N 50°47' W 000°15'0 0.0
2016-May-26 03:33N 50°47' W 000°15'0 0.0
2016-May-26 02:33N 50°47' W 000°15'0 0.0
2016-May-26 01:33N 50°47' W 000°15'0 0.0
2016-May-26 00:33N 50°47' W 000°15'0 0.1
2016-May-25 23:18N 50°47' W 000°15'0 0.0
2016-May-25 22:33N 50°47' W 000°15'0 0.0
2016-May-25 21:24N 50°47' W 000°15'0 0.0
2016-May-25 20:30N 50°47' W 000°15'0 0.0
2016-May-25 19:33N 50°47' W 000°15'0 0.1
2016-May-25 18:33N 50°47' W 000°15'0 0.0
2016-May-25 17:27N 50°47' W 000°15'0 0.0
2016-May-25 16:33N 50°47' W 000°15'0 0.0
2016-May-25 15:33N 50°47' W 000°15'0 0.0
2016-May-25 14:33N 50°47' W 000°15'0 0.0
2016-May-25 13:33N 50°47' W 000°15'4 3.7
2016-May-25 12:32N 50°43' W 000°12'5 4.7
2016-May-25 11:33N 50°39' W 000°11'6 6.0
2016-May-25 10:33N 50°35' W 000°19'5 4.9
2016-May-25 09:33N 50°31' W 000°21'2 2.1
2016-May-25 08:22N 50°29' W 000°24'2 0.9
2016-May-25 06:16N 50°29' W 000°21'2 2.0
2016-May-25 05:28N 50°30' W 000°18'2 2.2
2016-May-25 04:32N 50°30' W 000°15'2 2.3
2016-May-25 03:33N 50°30' W 000°12'8 7.9
2016-May-25 02:33N 50°32' E 000°00'1010.0
2016-May-25 01:33N 50°35' E 000°15'13 8.9
2016-May-25 00:08N 50°39' E 000°34'26 8.9
2016-May-24 21:11N 50°54' E 001°08'711.1
2016-May-24 20:33N 50°59' E 001°16'1212.0
2016-May-24 19:33N 51°06' E 001°31'1110.9
2016-May-24 18:33N 51°13' E 001°44'10 9.6
2016-May-24 17:34N 51°22' E 001°51'8 8.1
2016-May-24 16:33N 51°29' E 001°57'7 7.4
2016-May-24 15:33N 51°35' E 002°05'8 7.7
2016-May-24 14:32N 51°40' E 002°14'74 9.3
2016-May-24 06:30N 52°27' E 003°48'8 7.6
2016-May-24 05:30N 52°31' E 003°59'7 7.8
2016-May-24 04:33N 52°31' E 004°11'8 8.1
2016-May-24 03:33N 52°29' E 004°24'8 7.5
2016-May-24 02:33N 52°28' E 004°36'0 0.0
2016-May-24 01:33N 52°28' E 004°36'0 0.0
2016-May-24 00:33N 52°28' E 004°36'0 0.0
2016-May-23 23:33N 52°28' E 004°36'0 0.0
2016-May-23 22:33N 52°28' E 004°36'0 0.0
2016-May-23 21:33N 52°28' E 004°36'0 0.0
2016-May-23 20:33N 52°28' E 004°36'0 0.0
2016-May-23 19:33N 52°28' E 004°36'0 0.0
2016-May-23 18:33N 52°28' E 004°36'0 0.0
2016-May-23 17:30N 52°28' E 004°36'0 0.0
2016-May-23 16:33N 52°28' E 004°36'0 0.0
2016-May-23 15:30N 52°28' E 004°36'0 0.0
2016-May-23 14:27N 52°28' E 004°36'0 0.0
2016-May-23 13:33N 52°28' E 004°36'0 0.0
2016-May-23 12:33N 52°28' E 004°36'0 0.0
2016-May-23 11:33N 52°28' E 004°36'0 0.0
2016-May-23 10:33N 52°28' E 004°36'0 0.0
2016-May-23 09:32N 52°28' E 004°36'0 0.0
2016-May-23 08:32N 52°28' E 004°36'0 0.0
2016-May-23 07:32N 52°28' E 004°36'0 0.0
2016-May-23 06:32N 52°28' E 004°36'0 0.0
2016-May-23 05:32N 52°28' E 004°36'0 0.0
2016-May-23 04:32N 52°28' E 004°36'0 0.0
2016-May-23 03:32N 52°28' E 004°36'0 0.0
2016-May-23 02:32N 52°28' E 004°36'0 0.0
2016-May-23 01:32N 52°28' E 004°36'0 0.0
2016-May-23 00:32N 52°28' E 004°36'0 0.0
2016-May-22 23:32N 52°28' E 004°36'0 0.0
2016-May-22 22:32N 52°28' E 004°36'0 0.0
2016-May-22 21:29N 52°28' E 004°36'0 0.0
2016-May-22 20:32N 52°28' E 004°36'0 0.0
2016-May-22 19:32N 52°28' E 004°36'0 0.0
2016-May-22 18:32N 52°28' E 004°36'0 0.0
2016-May-22 17:32N 52°28' E 004°36'0 0.0
2016-May-22 16:32N 52°28' E 004°36'0 0.0
2016-May-22 15:32N 52°28' E 004°36'0 0.0
2016-May-22 14:29N 52°28' E 004°36'0 0.0
2016-May-22 13:32N 52°28' E 004°36'0 0.0
2016-May-22 12:32N 52°28' E 004°36'0 0.0
2016-May-22 11:32N 52°28' E 004°36'0 0.0
2016-May-22 10:32N 52°28' E 004°36'0 0.1
2016-May-22 09:32N 52°28' E 004°36'0 0.0
2016-May-22 08:32N 52°28' E 004°36'0 0.0
2016-May-22 07:32N 52°28' E 004°36'0 0.0
2016-May-22 06:32N 52°28' E 004°36'0 0.0
2016-May-22 05:32N 52°28' E 004°36'0 0.0
2016-May-22 04:32N 52°28' E 004°36'0 0.0
2016-May-22 03:32N 52°28' E 004°36'0 0.0
2016-May-22 02:31N 52°28' E 004°36'0 0.0
2016-May-22 01:31N 52°28' E 004°36'0 0.0
2016-May-22 00:31N 52°28' E 004°36'0 0.0
2016-May-21 23:31N 52°28' E 004°36'0 0.0
2016-May-21 22:31N 52°28' E 004°36'0 0.0
2016-May-21 21:31N 52°28' E 004°36'0 0.0
2016-May-21 20:31N 52°28' E 004°36'0 0.0
2016-May-21 19:31N 52°28' E 004°36'0 0.0
2016-May-21 18:31N 52°28' E 004°36'0 0.0
2016-May-21 17:31N 52°28' E 004°36'0 0.0
2016-May-21 16:31N 52°28' E 004°36'0 0.0
2016-May-21 15:31N 52°28' E 004°36'0 0.0
2016-May-21 14:31N 52°28' E 004°36'0 0.0
2016-May-21 13:31N 52°28' E 004°36'0 0.0
2016-May-21 12:31N 52°28' E 004°36'0 0.0
2016-May-21 11:31N 52°28' E 004°36'0 0.0
2016-May-21 10:31N 52°28' E 004°36'0 0.0
2016-May-21 09:34N 52°28' E 004°36'1 1.0
2016-May-21 08:33N 52°28' E 004°35'1110.6
2016-May-21 07:33N 52°28' E 004°17'5 5.0
2016-May-21 06:33N 52°28' E 004°09'0 0.0
2016-May-21 05:33N 52°28' E 004°09'0 0.0
2016-May-21 04:33N 52°28' E 004°09'0 0.0
2016-May-21 03:33N 52°28' E 004°09'0 0.0
2016-May-21 02:30N 52°28' E 004°09'0 0.0
2016-May-21 01:33N 52°28' E 004°09'0 0.0
2016-May-21 00:30N 52°28' E 004°09'0 0.0
2016-May-20 23:27N 52°28' E 004°09'0 0.0
2016-May-20 22:24N 52°28' E 004°09'0 0.0
2016-May-20 21:29N 52°28' E 004°09'0 0.0
2016-May-20 20:14N 52°28' E 004°09'0 0.3
2016-May-20 19:34N 52°28' E 004°09'10 9.9
2016-May-20 18:34N 52°18' E 004°03'1110.8
2016-May-20 17:34N 52°08' E 003°58'8 7.7
2016-May-20 16:34N 52°00' E 004°01'1111.2
2016-May-20 15:33N 51°54' E 004°16'1 1.1
2016-May-20 14:31N 51°53' E 004°16'0 0.0
2016-May-20 13:31N 51°53' E 004°16'0 0.0
2016-May-20 12:31N 51°53' E 004°16'0 0.0
2016-May-20 11:28N 51°53' E 004°16'0 0.0
2016-May-20 10:28N 51°53' E 004°16'0 0.0
2016-May-20 09:31N 51°53' E 004°16'0 0.0
2016-May-20 08:31N 51°53' E 004°16'0 0.0
2016-May-20 07:24N 51°53' E 004°16'0 0.0
2016-May-20 06:30N 51°53' E 004°16'0 0.0
2016-May-20 05:33N 51°53' E 004°16'0 0.0
2016-May-20 04:33N 51°53' E 004°16'0 0.0
2016-May-20 03:30N 51°53' E 004°16'0 0.0
2016-May-20 02:33N 51°53' E 004°16'0 0.0
2016-May-20 01:33N 51°53' E 004°16'0 0.0
2016-May-20 00:33N 51°53' E 004°16'0 0.0
2016-May-19 23:33N 51°53' E 004°16'0 0.0
2016-May-19 22:33N 51°53' E 004°16'0 0.0
2016-May-19 21:33N 51°53' E 004°16'0 0.0
2016-May-19 20:33N 51°53' E 004°16'0 0.0
2016-May-19 19:30N 51°53' E 004°16'0 0.0
2016-May-19 18:27N 51°53' E 004°16'0 0.0
2016-May-19 17:33N 51°53' E 004°16'0 0.0
2016-May-19 15:33N 51°53' E 004°16'0 0.0
2016-May-19 14:33N 51°53' E 004°16'0 0.0
2016-May-19 13:33N 51°53' E 004°16'2 2.1
2016-May-19 12:33N 51°55' E 004°14'1010.0
2016-May-19 11:33N 51°60' E 004°00'9 8.9
2016-May-19 10:34N 51°57' E 003°46'0 0.2
2016-May-19 09:33N 51°57' E 003°46'0 0.0
2016-May-19 08:33N 51°57' E 003°46'0 0.0
2016-May-19 07:27N 51°57' E 003°46'0 0.0
2016-May-19 06:30N 51°57' E 003°46'0 0.1
2016-May-19 05:33N 51°57' E 003°46'0 0.1
2016-May-19 04:21N 51°57' E 003°46'0 0.0
2016-May-19 03:24N 51°57' E 003°46'0 0.0
2016-May-19 02:24N 51°57' E 003°46'0 0.0
2016-May-19 01:33N 51°57' E 003°46'  
Track history (hours):
 
Tides and Currents Weather Stations Pressure Air Temp Water Temp Dewpoint Dewpoint Depression Visibility Wind Speed Wind Dir Waves Ship Positions

Helas

Last reported at 2016-May-29 00:23 UTC. Time now 2016-May-30 04:58 UTC.
Position N 48°58' W 005°31'.

Length 89 m; draft 5.8 m.

Type: Cargo ship. MMSI: 210031000.

Date/timePositionNaut miles runAvg speedWind from/ knotsBaromVisibWave heightAir tempDewpointWater temp
2016-May-29 00:23N 48°58' W 005°31'10 9.7
2016-May-28 23:23N 49°03' W 005°18'9 9.1
2016-May-28 22:21N 49°07' W 005°06'7 8.7
2016-May-28 21:32N 49°11' W 004°57'8 8.6
2016-May-28 20:33N 49°15' W 004°46'9 8.6
2016-May-28 19:33N 49°19' W 004°34'12 9.2
2016-May-28 18:15N 49°25' W 004°18'3010.0
2016-May-28 15:15N 49°41' W 003°38'10 9.9
2016-May-28 14:14N 49°46' W 003°25'6 9.4
2016-May-28 13:34N 49°49' W 003°16'9 8.9
2016-May-28 12:33N 49°53' W 003°04'8 8.4
2016-May-28 11:33N 49°58' W 002°53'8 8.2
2016-May-28 10:33N 50°01' W 002°41'8510.7
2016-May-28 02:33N 50°32' W 000°37'9 8.8
2016-May-28 01:33N 50°35' W 000°24'8 8.2
2016-May-28 00:32N 50°39' W 000°12'8 7.9
2016-May-27 23:33N 50°46' W 000°14'1 0.8
2016-May-27 22:33N 50°46' W 000°13'6 5.8
2016-May-27 21:33N 50°41' W 000°07'6 6.4
2016-May-27 20:33N 50°46' W 000°13'1 1.0
2016-May-27 19:33N 50°47' W 000°15'0 0.0
2016-May-27 18:30N 50°47' W 000°15'0 0.0
2016-May-27 17:27N 50°47' W 000°15'0 0.0
2016-May-27 16:33N 50°47' W 000°15'0 0.0
2016-May-27 15:33N 50°47' W 000°15'0 0.0
2016-May-27 14:33N 50°47' W 000°15'0 0.0
2016-May-27 13:30N 50°47' W 000°15'0 0.1
2016-May-27 12:30N 50°47' W 000°15'0 0.0
2016-May-27 11:30N 50°47' W 000°15'0 0.0
2016-May-27 10:33N 50°47' W 000°15'0 0.1
2016-May-27 09:33N 50°47' W 000°15'0 0.1
2016-May-27 08:33N 50°47' W 000°15'0 0.0
2016-May-27 07:33N 50°47' W 000°15'0 0.0
2016-May-27 06:33N 50°47' W 000°15'0 0.0
2016-May-27 05:33N 50°47' W 000°15'0 0.0
2016-May-27 04:30N 50°47' W 000°15'0 0.0
2016-May-27 03:33N 50°47' W 000°15'0 0.0
2016-May-27 02:33N 50°47' W 000°15'0 0.0
2016-May-27 01:33N 50°47' W 000°15'0 0.1
2016-May-27 00:27N 50°47' W 000°15'0 0.0
2016-May-26 23:33N 50°47' W 000°15'0 0.0
2016-May-26 22:30N 50°47' W 000°15'0 0.0
2016-May-26 21:33N 50°47' W 000°15'0 0.1
2016-May-26 20:30N 50°47' W 000°15'0 0.0
2016-May-26 19:30N 50°47' W 000°15'0 0.0
2016-May-26 18:33N 50°47' W 000°15'0 0.0
2016-May-26 17:33N 50°47' W 000°15'0 0.0
2016-May-26 16:33N 50°47' W 000°15'0 0.0
2016-May-26 15:32N 50°47' W 000°15'0 0.0
2016-May-26 14:30N 50°47' W 000°15'0 0.0
2016-May-26 13:32N 50°47' W 000°15'0 0.0
2016-May-26 12:32N 50°47' W 000°15'0 0.1
2016-May-26 11:32N 50°47' W 000°15'1 1.3
2016-May-26 10:33N 50°46' W 000°13'1 1.0
2016-May-26 09:33N 50°46' W 000°14'1 0.5
2016-May-26 08:33N 50°47' W 000°15'0 0.1
2016-May-26 07:33N 50°47' W 000°15'0 0.0
2016-May-26 06:30N 50°47' W 000°15'0 0.0
2016-May-26 05:33N 50°47' W 000°15'0 0.0
2016-May-26 04:33N 50°47' W 000°15'0 0.0
2016-May-26 03:33N 50°47' W 000°15'0 0.0
2016-May-26 02:33N 50°47' W 000°15'0 0.0
2016-May-26 01:33N 50°47' W 000°15'0 0.0
2016-May-26 00:33N 50°47' W 000°15'0 0.1
2016-May-25 23:18N 50°47' W 000°15'0 0.0
2016-May-25 22:33N 50°47' W 000°15'0 0.0
2016-May-25 21:24N 50°47' W 000°15'0 0.0
2016-May-25 20:30N 50°47' W 000°15'0 0.0
2016-May-25 19:33N 50°47' W 000°15'0 0.1
2016-May-25 18:33N 50°47' W 000°15'0 0.0
2016-May-25 17:27N 50°47' W 000°15'0 0.0
2016-May-25 16:33N 50°47' W 000°15'0 0.0
2016-May-25 15:33N 50°47' W 000°15'0 0.0
2016-May-25 14:33N 50°47' W 000°15'0 0.0
2016-May-25 13:33N 50°47' W 000°15'4 3.7
2016-May-25 12:32N 50°43' W 000°12'5 4.7
2016-May-25 11:33N 50°39' W 000°11'6 6.0
2016-May-25 10:33N 50°35' W 000°19'5 4.9
2016-May-25 09:33N 50°31' W 000°21'2 2.1
2016-May-25 08:22N 50°29' W 000°24'2 0.9
2016-May-25 06:16N 50°29' W 000°21'2 2.0
2016-May-25 05:28N 50°30' W 000°18'2 2.2
2016-May-25 04:32N 50°30' W 000°15'2 2.3
2016-May-25 03:33N 50°30' W 000°12'8 7.9
2016-May-25 02:33N 50°32' E 000°00'1010.0
2016-May-25 01:33N 50°35' E 000°15'13 8.9
2016-May-25 00:08N 50°39' E 000°34'26 8.9
2016-May-24 21:11N 50°54' E 001°08'711.1
2016-May-24 20:33N 50°59' E 001°16'1212.0
2016-May-24 19:33N 51°06' E 001°31'1110.9
2016-May-24 18:33N 51°13' E 001°44'10 9.6
2016-May-24 17:34N 51°22' E 001°51'8 8.1
2016-May-24 16:33N 51°29' E 001°57'7 7.4
2016-May-24 15:33N 51°35' E 002°05'8 7.7
2016-May-24 14:32N 51°40' E 002°14'74 9.3
2016-May-24 06:30N 52°27' E 003°48'8 7.6
2016-May-24 05:30N 52°31' E 003°59'7 7.8
2016-May-24 04:33N 52°31' E 004°11'8 8.1
2016-May-24 03:33N 52°29' E 004°24'8 7.5
2016-May-24 02:33N 52°28' E 004°36'0 0.0
2016-May-24 01:33N 52°28' E 004°36'0 0.0
2016-May-24 00:33N 52°28' E 004°36'0 0.0
2016-May-23 23:33N 52°28' E 004°36'0 0.0
2016-May-23 22:33N 52°28' E 004°36'0 0.0
2016-May-23 21:33N 52°28' E 004°36'0 0.0
2016-May-23 20:33N 52°28' E 004°36'0 0.0
2016-May-23 19:33N 52°28' E 004°36'0 0.0
2016-May-23 18:33N 52°28' E 004°36'0 0.0
2016-May-23 17:30N 52°28' E 004°36'0 0.0
2016-May-23 16:33N 52°28' E 004°36'0 0.0
2016-May-23 15:30N 52°28' E 004°36'0 0.0
2016-May-23 14:27N 52°28' E 004°36'0 0.0
2016-May-23 13:33N 52°28' E 004°36'0 0.0
2016-May-23 12:33N 52°28' E 004°36'0 0.0
2016-May-23 11:33N 52°28' E 004°36'0 0.0
2016-May-23 10:33N 52°28' E 004°36'0 0.0
2016-May-23 09:32N 52°28' E 004°36'0 0.0
2016-May-23 08:32N 52°28' E 004°36'0 0.0
2016-May-23 07:32N 52°28' E 004°36'0 0.0
2016-May-23 06:32N 52°28' E 004°36'0 0.0
2016-May-23 05:32N 52°28' E 004°36'0 0.0
2016-May-23 04:32N 52°28' E 004°36'0 0.0
2016-May-23 03:32N 52°28' E 004°36'0 0.0
2016-May-23 02:32N 52°28' E 004°36'0 0.0
2016-May-23 01:32N 52°28' E 004°36'0 0.0
2016-May-23 00:32N 52°28' E 004°36'0 0.0
2016-May-22 23:32N 52°28' E 004°36'0 0.0
2016-May-22 22:32N 52°28' E 004°36'0 0.0
2016-May-22 21:29N 52°28' E 004°36'0 0.0
2016-May-22 20:32N 52°28' E 004°36'0 0.0
2016-May-22 19:32N 52°28' E 004°36'0 0.0
2016-May-22 18:32N 52°28' E 004°36'0 0.0
2016-May-22 17:32N 52°28' E 004°36'0 0.0
2016-May-22 16:32N 52°28' E 004°36'0 0.0
2016-May-22 15:32N 52°28' E 004°36'0 0.0
2016-May-22 14:29N 52°28' E 004°36'0 0.0
2016-May-22 13:32N 52°28' E 004°36'0 0.0
2016-May-22 12:32N 52°28' E 004°36'0 0.0
2016-May-22 11:32N 52°28' E 004°36'0 0.0
2016-May-22 10:32N 52°28' E 004°36'0 0.1
2016-May-22 09:32N 52°28' E 004°36'0 0.0
2016-May-22 08:32N 52°28' E 004°36'0 0.0
2016-May-22 07:32N 52°28' E 004°36'0 0.0
2016-May-22 06:32N 52°28' E 004°36'0 0.0
2016-May-22 05:32N 52°28' E 004°36'0 0.0
2016-May-22 04:32N 52°28' E 004°36'0 0.0
2016-May-22 03:32N 52°28' E 004°36'0 0.0
2016-May-22 02:31N 52°28' E 004°36'0 0.0
2016-May-22 01:31N 52°28' E 004°36'0 0.0
2016-May-22 00:31N 52°28' E 004°36'0 0.0
2016-May-21 23:31N 52°28' E 004°36'0 0.0
2016-May-21 22:31N 52°28' E 004°36'0 0.0
2016-May-21 21:31N 52°28' E 004°36'0 0.0
2016-May-21 20:31N 52°28' E 004°36'0 0.0
2016-May-21 19:31N 52°28' E 004°36'0 0.0
2016-May-21 18:31N 52°28' E 004°36'0 0.0
2016-May-21 17:31N 52°28' E 004°36'0 0.0
2016-May-21 16:31N 52°28' E 004°36'0 0.0
2016-May-21 15:31N 52°28' E 004°36'0 0.0
2016-May-21 14:31N 52°28' E 004°36'0 0.0
2016-May-21 13:31N 52°28' E 004°36'0 0.0
2016-May-21 12:31N 52°28' E 004°36'0 0.0
2016-May-21 11:31N 52°28' E 004°36'0 0.0
2016-May-21 10:31N 52°28' E 004°36'0 0.0
2016-May-21 09:34N 52°28' E 004°36'1 1.0
2016-May-21 08:33N 52°28' E 004°35'1110.6
2016-May-21 07:33N 52°28' E 004°17'5 5.0
2016-May-21 06:33N 52°28' E 004°09'0 0.0
2016-May-21 05:33N 52°28' E 004°09'0 0.0
2016-May-21 04:33N 52°28' E 004°09'0 0.0
2016-May-21 03:33N 52°28' E 004°09'0 0.0
2016-May-21 02:30N 52°28' E 004°09'0 0.0
2016-May-21 01:33N 52°28' E 004°09'0 0.0
2016-May-21 00:30N 52°28' E 004°09'0 0.0
2016-May-20 23:27N 52°28' E 004°09'0 0.0
2016-May-20 22:24N 52°28' E 004°09'0 0.0
2016-May-20 21:29N 52°28' E 004°09'0 0.0
2016-May-20 20:14N 52°28' E 004°09'0 0.3
2016-May-20 19:34N 52°28' E 004°09'10 9.9
2016-May-20 18:34N 52°18' E 004°03'1110.8
2016-May-20 17:34N 52°08' E 003°58'8 7.7
2016-May-20 16:34N 52°00' E 004°01'1111.2
2016-May-20 15:33N 51°54' E 004°16'1 1.1
2016-May-20 14:31N 51°53' E 004°16'0 0.0
2016-May-20 13:31N 51°53' E 004°16'0 0.0
2016-May-20 12:31N 51°53' E 004°16'0 0.0
2016-May-20 11:28N 51°53' E 004°16'0 0.0
2016-May-20 10:28N 51°53' E 004°16'0 0.0
2016-May-20 09:31N 51°53' E 004°16'0 0.0
2016-May-20 08:31N 51°53' E 004°16'0 0.0
2016-May-20 07:24N 51°53' E 004°16'0 0.0
2016-May-20 06:30N 51°53' E 004°16'0 0.0
2016-May-20 05:33N 51°53' E 004°16'0 0.0
2016-May-20 04:33N 51°53' E 004°16'0 0.0
2016-May-20 03:30N 51°53' E 004°16'0 0.0
2016-May-20 02:33N 51°53' E 004°16'0 0.0
2016-May-20 01:33N 51°53' E 004°16'0 0.0
2016-May-20 00:33N 51°53' E 004°16'0 0.0
2016-May-19 23:33N 51°53' E 004°16'0 0.0
2016-May-19 22:33N 51°53' E 004°16'0 0.0
2016-May-19 21:33N 51°53' E 004°16'0 0.0
2016-May-19 20:33N 51°53' E 004°16'0 0.0
2016-May-19 19:30N 51°53' E 004°16'0 0.0
2016-May-19 18:27N 51°53' E 004°16'0 0.0
2016-May-19 17:33N 51°53' E 004°16'0 0.0
2016-May-19 15:33N 51°53' E 004°16'0 0.0
2016-May-19 14:33N 51°53' E 004°16'0 0.0
2016-May-19 13:33N 51°53' E 004°16'2 2.1
2016-May-19 12:33N 51°55' E 004°14'1010.0
2016-May-19 11:33N 51°60' E 004°00'9 8.9
2016-May-19 10:34N 51°57' E 003°46'0 0.2
2016-May-19 09:33N 51°57' E 003°46'0 0.0
2016-May-19 08:33N 51°57' E 003°46'0 0.0
2016-May-19 07:27N 51°57' E 003°46'0 0.0
2016-May-19 06:30N 51°57' E 003°46'0 0.1
2016-May-19 05:33N 51°57' E 003°46'0 0.1
2016-May-19 04:21N 51°57' E 003°46'0 0.0
2016-May-19 03:24N 51°57' E 003°46'0 0.0
2016-May-19 02:24N 51°57' E 003°46'0 0.0
2016-May-19 01:33N 51°57' E 003°46'  

Dump ship's entire track history